sensor_id;sensor_type;location;lat;lon;timestamp;pressure;altitude;pressure_sealevel;temperature;humidity
58343;BME280;44150;42.602;23.398;2024-02-15T00:02:01;94008.41;;;37.60;61.10
58343;BME280;44150;42.602;23.398;2024-02-15T00:04:27;94021.44;;;37.58;61.00
58343;BME280;44150;42.602;23.398;2024-02-15T00:06:52;94021.44;;;37.58;60.10
58343;BME280;44150;42.602;23.398;2024-02-15T00:09:17;94029.81;;;37.56;59.79
58343;BME280;44150;42.602;23.398;2024-02-15T00:11:43;94025.69;;;37.59;59.88
58343;BME280;44150;42.602;23.398;2024-02-15T00:14:08;94021.59;;;37.61;60.24
58343;BME280;44150;42.602;23.398;2024-02-15T00:16:34;94022.53;;;37.57;59.84
58343;BME280;44150;42.602;23.398;2024-02-15T00:19:01;94022.19;;;37.58;59.77
58343;BME280;44150;42.602;23.398;2024-02-15T00:21:27;94028.09;;;37.60;60.31
58343;BME280;44150;42.602;23.398;2024-02-15T00:23:52;94032.69;;;37.60;60.38
58343;BME280;44150;42.602;23.398;2024-02-15T00:26:21;94033.00;;;37.58;60.75
58343;BME280;44150;42.602;23.398;2024-02-15T00:28:46;94028.91;;;37.61;60.08
58343;BME280;44150;42.602;23.398;2024-02-15T00:31:12;94027.31;;;37.60;60.39
58343;BME280;44150;42.602;23.398;2024-02-15T00:33:37;94036.19;;;37.60;60.28
58343;BME280;44150;42.602;23.398;2024-02-15T00:36:04;94029.69;;;37.61;60.97
58343;BME280;44150;42.602;23.398;2024-02-15T00:38:31;94031.09;;;37.59;60.33
58343;BME280;44150;42.602;23.398;2024-02-15T00:40:57;94035.84;;;37.53;61.51
58343;BME280;44150;42.602;23.398;2024-02-15T00:43:24;94038.56;;;37.53;60.89
58343;BME280;44150;42.602;23.398;2024-02-15T00:45:49;94039.03;;;37.55;60.57
58343;BME280;44150;42.602;23.398;2024-02-15T00:48:15;94043.34;;;37.56;60.36
58343;BME280;44150;42.602;23.398;2024-02-15T00:50:40;94035.69;;;37.58;59.80
58343;BME280;44150;42.602;23.398;2024-02-15T00:53:05;94039.53;;;37.57;59.98
58343;BME280;44150;42.602;23.398;2024-02-15T00:55:31;94036.50;;;37.59;60.31
58343;BME280;44150;42.602;23.398;2024-02-15T00:57:57;94036.19;;;37.60;59.97
58343;BME280;44150;42.602;23.398;2024-02-15T01:00:22;94038.91;;;37.60;60.58
58343;BME280;44150;42.602;23.398;2024-02-15T01:02:48;94043.50;;;37.60;60.55
58343;BME280;44150;42.602;23.398;2024-02-15T01:05:14;94036.50;;;37.59;60.46
58343;BME280;44150;42.602;23.398;2024-02-15T01:07:41;94039.19;;;37.59;59.61
58343;BME280;44150;42.602;23.398;2024-02-15T01:10:07;94038.59;;;37.62;60.23
58343;BME280;44150;42.602;23.398;2024-02-15T01:12:32;94033.31;;;37.57;59.49
58343;BME280;44150;42.602;23.398;2024-02-15T01:14:58;94037.00;;;37.61;59.72
58343;BME280;44150;42.602;23.398;2024-02-15T01:17:23;94039.19;;;37.59;59.52
58343;BME280;44150;42.602;23.398;2024-02-15T01:19:49;94037.31;;;37.59;60.24
58343;BME280;44150;42.602;23.398;2024-02-15T01:22:14;94035.41;;;37.60;60.08
58343;BME280;44150;42.602;23.398;2024-02-15T01:24:39;94033.50;;;37.60;60.49
58343;BME280;44150;42.602;23.398;2024-02-15T01:27:05;94031.31;;;37.62;60.71
58343;BME280;44150;42.602;23.398;2024-02-15T01:29:32;94019.19;;;37.60;60.38
58343;BME280;44150;42.602;23.398;2024-02-15T01:31:58;94020.00;;;37.60;60.40
58343;BME280;44150;42.602;23.398;2024-02-15T01:34:23;94024.59;;;37.60;60.47
58343;BME280;44150;42.602;23.398;2024-02-15T01:36:48;94034.47;;;37.64;60.21
58343;BME280;44150;42.602;23.398;2024-02-15T01:39:15;94037.31;;;37.59;60.37
58343;BME280;44150;42.602;23.398;2024-02-15T01:41:46;94028.56;;;37.54;60.74
58343;BME280;44150;42.602;23.398;2024-02-15T01:44:13;94032.03;;;37.54;60.21
58343;BME280;44150;42.602;23.398;2024-02-15T01:46:38;94030.94;;;37.55;60.37
58343;BME280;44150;42.602;23.398;2024-02-15T01:49:05;94034.13;;;37.57;60.59
58343;BME280;44150;42.602;23.398;2024-02-15T01:51:33;94032.81;;;37.55;59.96
58343;BME280;44150;42.602;23.398;2024-02-15T01:54:01;94026.31;;;37.56;60.05
58343;BME280;44150;42.602;23.398;2024-02-15T01:56:27;94030.50;;;37.62;60.88
58343;BME280;44150;42.602;23.398;2024-02-15T01:58:53;94032.69;;;37.60;60.39
58343;BME280;44150;42.602;23.398;2024-02-15T02:01:20;94036.50;;;37.59;61.34
58343;BME280;44150;42.602;23.398;2024-02-15T02:03:46;94033.50;;;37.60;60.52
58343;BME280;44150;42.602;23.398;2024-02-15T02:06:12;94025.91;;;37.62;60.59
58343;BME280;44150;42.602;23.398;2024-02-15T02:08:37;94030.63;;;37.57;61.08
58343;BME280;44150;42.602;23.398;2024-02-15T02:11:03;94034.00;;;37.62;60.24
58343;BME280;44150;42.602;23.398;2024-02-15T02:13:29;94034.31;;;37.61;61.07
58343;BME280;44150;42.602;23.398;2024-02-15T02:15:54;94035.69;;;37.58;60.63
58343;BME280;44150;42.602;23.398;2024-02-15T02:18:20;94032.41;;;37.61;60.56
58343;BME280;44150;42.602;23.398;2024-02-15T02:20:45;94038.91;;;37.60;60.07
58343;BME280;44150;42.602;23.398;2024-02-15T02:23:15;94044.31;;;37.60;60.36
58343;BME280;44150;42.602;23.398;2024-02-15T02:25:41;94046.50;;;37.58;60.59
58343;BME280;44150;42.602;23.398;2024-02-15T02:28:08;94050.00;;;37.59;60.13
58343;BME280;44150;42.602;23.398;2024-02-15T02:30:34;94041.59;;;37.60;60.49
58343;BME280;44150;42.602;23.398;2024-02-15T02:33:00;94052.72;;;37.59;59.62
58343;BME280;44150;42.602;23.398;2024-02-15T02:35:25;94051.13;;;37.58;59.80
58343;BME280;44150;42.602;23.398;2024-02-15T02:37:52;94054.47;;;37.63;59.92
58343;BME280;44150;42.602;23.398;2024-02-15T02:40:18;94054.47;;;37.63;60.40
58343;BME280;44150;42.602;23.398;2024-02-15T02:42:57;94054.94;;;37.57;61.15
58343;BME280;44150;42.602;23.398;2024-02-15T02:45:24;94049.03;;;37.55;60.28
58343;BME280;44150;42.602;23.398;2024-02-15T02:47:50;94060.63;;;37.55;60.83
58343;BME280;44150;42.602;23.398;2024-02-15T02:50:16;94060.00;;;37.58;60.11
58343;BME280;44150;42.602;23.398;2024-02-15T02:52:42;94054.13;;;37.56;59.67
58343;BME280;44150;42.602;23.398;2024-02-15T02:55:08;94062.41;;;37.60;60.01
58343;BME280;44150;42.602;23.398;2024-02-15T02:57:37;94055.91;;;37.61;60.14
58343;BME280;44150;42.602;23.398;2024-02-15T03:00:08;94055.75;;;37.57;59.72
58343;BME280;44150;42.602;23.398;2024-02-15T03:02:36;94060.50;;;37.60;59.64
58343;BME280;44150;42.602;23.398;2024-02-15T03:05:03;94066.22;;;37.59;60.42
58343;BME280;44150;42.602;23.398;2024-02-15T03:07:31;94068.91;;;37.59;60.22
58343;BME280;44150;42.602;23.398;2024-02-15T03:09:57;94062.13;;;37.61;60.51
58343;BME280;44150;42.602;23.398;2024-02-15T03:12:22;94056.72;;;37.61;60.43
58343;BME280;44150;42.602;23.398;2024-02-15T03:14:48;94056.72;;;37.61;60.65
58343;BME280;44150;42.602;23.398;2024-02-15T03:17:13;94055.75;;;37.57;60.89
58343;BME280;44150;42.602;23.398;2024-02-15T03:19:38;94064.00;;;37.61;60.97
58343;BME280;44150;42.602;23.398;2024-02-15T03:22:04;94065.13;;;37.60;60.69
58343;BME280;44150;42.602;23.398;2024-02-15T03:24:29;94065.63;;;37.62;60.79
58343;BME280;44150;42.602;23.398;2024-02-15T03:26:54;94073.22;;;37.60;60.45
58343;BME280;44150;42.602;23.398;2024-02-15T03:29:21;94067.53;;;37.61;60.44
58343;BME280;44150;42.602;23.398;2024-02-15T03:31:47;94065.41;;;37.58;60.71
58343;BME280;44150;42.602;23.398;2024-02-15T03:34:14;94061.13;;;37.57;60.55
58343;BME280;44150;42.602;23.398;2024-02-15T03:36:41;94072.91;;;37.61;60.72
58343;BME280;44150;42.602;23.398;2024-02-15T03:39:06;94069.13;;;37.62;60.66
58343;BME280;44150;42.602;23.398;2024-02-15T03:41:33;94071.50;;;37.64;61.42
58343;BME280;44150;42.602;23.398;2024-02-15T03:43:59;94064.44;;;37.54;61.04
58343;BME280;44150;42.602;23.398;2024-02-15T03:46:25;94062.53;;;37.55;60.58
58343;BME280;44150;42.602;23.398;2024-02-15T03:48:51;94061.44;;;37.56;61.55
58343;BME280;44150;42.602;23.398;2024-02-15T03:51:19;94058.72;;;37.56;61.57
58343;BME280;44150;42.602;23.398;2024-02-15T03:53:45;94055.75;;;37.57;61.46
58343;BME280;44150;42.602;23.398;2024-02-15T03:56:11;94057.00;;;37.60;60.92
58343;BME280;44150;42.602;23.398;2024-02-15T03:58:37;94057.13;;;37.55;60.56
58343;BME280;44150;42.602;23.398;2024-02-15T04:01:04;94058.72;;;37.56;60.53
58343;BME280;44150;42.602;23.398;2024-02-15T04:03:31;94064.19;;;37.64;61.13
58343;BME280;44150;42.602;23.398;2024-02-15T04:05:57;94063.03;;;37.57;61.75
58343;BME280;44150;42.602;23.398;2024-02-15T04:08:23;94065.41;;;37.58;61.58
58343;BME280;44150;42.602;23.398;2024-02-15T04:10:49;94061.44;;;37.56;61.05
58343;BME280;44150;42.602;23.398;2024-02-15T04:13:14;94064.63;;;37.58;60.12
58343;BME280;44150;42.602;23.398;2024-02-15T04:15:39;94067.53;;;37.61;61.22
58343;BME280;44150;42.602;23.398;2024-02-15T04:18:07;94069.13;;;37.62;60.89
58343;BME280;44150;42.602;23.398;2024-02-15T04:20:33;94066.53;;;37.57;61.07
58343;BME280;44150;42.602;23.398;2024-02-15T04:22:59;94067.34;;;37.58;60.69
58343;BME280;44150;42.602;23.398;2024-02-15T04:25:25;94073.22;;;37.60;61.64
58343;BME280;44150;42.602;23.398;2024-02-15T04:27:53;94069.41;;;37.61;60.94
58343;BME280;44150;42.602;23.398;2024-02-15T04:30:18;94073.22;;;37.60;61.02
58343;BME280;44150;42.602;23.398;2024-02-15T04:32:45;94079.13;;;37.62;61.62
58343;BME280;44150;42.602;23.398;2024-02-15T04:35:12;94078.91;;;37.58;61.11
58343;BME280;44150;42.602;23.398;2024-02-15T04:37:37;94077.00;;;37.59;60.58
58343;BME280;44150;42.602;23.398;2024-02-15T04:40:04;94081.81;;;37.62;60.72
58343;BME280;44150;42.602;23.398;2024-02-15T04:42:36;94080.63;;;37.54;60.58
58343;BME280;44150;42.602;23.398;2024-02-15T04:45:05;94087.16;;;37.53;60.54
58343;BME280;44150;42.602;23.398;2024-02-15T04:47:33;94091.78;;;37.53;60.45
58343;BME280;44150;42.602;23.398;2024-02-15T04:49:59;94093.03;;;37.55;59.98
58343;BME280;44150;42.602;23.398;2024-02-15T04:52:24;94094.34;;;37.58;60.35
58343;BME280;44150;42.602;23.398;2024-02-15T04:54:50;94087.97;;;37.54;59.83
58343;BME280;44150;42.602;23.398;2024-02-15T04:57:15;94087.66;;;37.55;59.62
58343;BME280;44150;42.602;23.398;2024-02-15T04:59:41;94089.41;;;37.60;59.86
58343;BME280;44150;42.602;23.398;2024-02-15T05:02:12;94089.72;;;37.58;59.85
58343;BME280;44150;42.602;23.398;2024-02-15T05:04:37;94090.84;;;37.57;59.68
58343;BME280;44150;42.602;23.398;2024-02-15T05:07:03;94098.94;;;37.57;59.88
58343;BME280;44150;42.602;23.398;2024-02-15T05:09:29;94101.31;;;37.59;59.66
58343;BME280;44150;42.602;23.398;2024-02-15T05:11:56;94107.84;;;37.58;59.75
58343;BME280;44150;42.602;23.398;2024-02-15T05:14:22;94112.13;;;37.59;60.00
58343;BME280;44150;42.602;23.398;2024-02-15T05:16:49;94111.66;;;37.57;60.39
58343;BME280;44150;42.602;23.398;2024-02-15T05:19:15;94111.66;;;37.57;60.55
58343;BME280;44150;42.602;23.398;2024-02-15T05:21:41;94109.44;;;37.59;60.33
58343;BME280;44150;42.602;23.398;2024-02-15T05:24:12;94119.13;;;37.60;60.58
58343;BME280;44150;42.602;23.398;2024-02-15T05:26:39;94118.34;;;37.59;60.86
58343;BME280;44150;42.602;23.398;2024-02-15T05:29:04;94126.75;;;37.58;60.83
58343;BME280;44150;42.602;23.398;2024-02-15T05:31:30;94122.63;;;37.60;60.64
58343;BME280;44150;42.602;23.398;2024-02-15T05:33:55;94133.44;;;37.60;60.65
58343;BME280;44150;42.602;23.398;2024-02-15T05:36:21;94131.53;;;37.61;61.41
58343;BME280;44150;42.602;23.398;2024-02-15T05:38:51;94133.72;;;37.59;60.67
58343;BME280;44150;42.602;23.398;2024-02-15T05:41:17;94133.16;;;37.62;60.76
58343;BME280;44150;42.602;23.398;2024-02-15T05:43:42;94126.56;;;37.54;61.02
58343;BME280;44150;42.602;23.398;2024-02-15T05:46:08;94138.78;;;37.52;60.98
58343;BME280;44150;42.602;23.398;2024-02-15T05:48:34;94133.56;;;37.55;60.20
58343;BME280;44150;42.602;23.398;2024-02-15T05:51:04;94136.59;;;37.54;59.74
58343;BME280;44150;42.602;23.398;2024-02-15T05:53:30;94141.97;;;37.54;60.52
58343;BME280;44150;42.602;23.398;2024-02-15T05:55:56;94141.66;;;37.55;60.44
58343;BME280;44150;42.602;23.398;2024-02-15T05:58:24;94143.75;;;37.58;60.81
58343;BME280;44150;42.602;23.398;2024-02-15T06:00:49;94146.75;;;37.57;60.75
58343;BME280;44150;42.602;23.398;2024-02-15T06:03:17;94150.28;;;37.57;59.91
58343;BME280;44150;42.602;23.398;2024-02-15T06:05:43;94154.88;;;37.57;59.70
58343;BME280;44150;42.602;23.398;2024-02-15T06:08:12;94162.97;;;37.57;60.19
58343;BME280;44150;42.602;23.398;2024-02-15T06:10:38;94166.47;;;37.57;59.92
58343;BME280;44150;42.602;23.398;2024-02-15T06:13:04;94166.78;;;37.56;59.89
58343;BME280;44150;42.602;23.398;2024-02-15T06:15:30;94173.78;;;37.57;60.11
58343;BME280;44150;42.602;23.398;2024-02-15T06:17:55;94175.97;;;37.55;60.54
58343;BME280;44150;42.602;23.398;2024-02-15T06:20:22;94168.38;;;37.57;59.70
58343;BME280;44150;42.602;23.398;2024-02-15T06:22:48;94169.97;;;37.58;59.76
58343;BME280;44150;42.602;23.398;2024-02-15T06:25:13;94178.56;;;37.60;60.09
58343;BME280;44150;42.602;23.398;2024-02-15T06:27:40;94181.25;;;37.60;60.17
58343;BME280;44150;42.602;23.398;2024-02-15T06:30:08;94182.06;;;37.60;59.87
58343;BME280;44150;42.602;23.398;2024-02-15T06:32:52;94182.34;;;37.59;60.11
58343;BME280;44150;42.602;23.398;2024-02-15T06:35:37;94182.34;;;37.59;60.49
58343;BME280;44150;42.602;23.398;2024-02-15T06:38:21;94188.09;;;37.57;59.82
58343;BME280;44150;42.602;23.398;2024-02-15T06:41:05;94183.97;;;37.60;60.30
58343;BME280;44150;42.602;23.398;2024-02-15T06:43:31;94193.16;;;37.59;60.07
58343;BME280;44150;42.602;23.398;2024-02-15T06:45:58;94189.56;;;37.50;59.66
58343;BME280;44150;42.602;23.398;2024-02-15T06:48:23;94189.19;;;37.56;60.34
58343;BME280;44150;42.602;23.398;2024-02-15T06:50:50;94185.50;;;37.52;59.77
58343;BME280;44150;42.602;23.398;2024-02-15T06:53:15;94187.38;;;37.52;60.31
58343;BME280;44150;42.602;23.398;2024-02-15T06:55:41;94180.09;;;37.52;59.84
58343;BME280;44150;42.602;23.398;2024-02-15T06:58:07;94184.88;;;37.55;59.84
58343;BME280;44150;42.602;23.398;2024-02-15T07:00:32;94183.78;;;37.56;59.61
58343;BME280;44150;42.602;23.398;2024-02-15T07:02:58;94175.38;;;37.58;59.63
58343;BME280;44150;42.602;23.398;2024-02-15T07:05:24;94187.47;;;37.60;59.80
58343;BME280;44150;42.602;23.398;2024-02-15T07:07:49;94188.25;;;37.61;59.85
58343;BME280;44150;42.602;23.398;2024-02-15T07:10:15;94182.69;;;37.57;59.76
58343;BME280;44150;42.602;23.398;2024-02-15T07:12:42;94189.66;;;37.58;59.36
58343;BME280;44150;42.602;23.398;2024-02-15T07:15:09;94189.66;;;37.58;59.50
58343;BME280;44150;42.602;23.398;2024-02-15T07:17:35;94192.16;;;37.55;59.34
58343;BME280;44150;42.602;23.398;2024-02-15T07:20:03;94200.47;;;37.58;59.29
58343;BME280;44150;42.602;23.398;2024-02-15T07:22:30;94200.78;;;37.57;59.68
58343;BME280;44150;42.602;23.398;2024-02-15T07:24:57;94189.47;;;37.55;60.05
58343;BME280;44150;42.602;23.398;2024-02-15T07:27:22;94198.56;;;37.59;59.83
58343;BME280;44150;42.602;23.398;2024-02-15T07:29:50;94197.75;;;37.58;59.54
58343;BME280;44150;42.602;23.398;2024-02-15T07:32:16;94193.78;;;37.56;59.46
58343;BME280;44150;42.602;23.398;2024-02-15T07:34:42;94192.69;;;37.57;59.98
58343;BME280;44150;42.602;23.398;2024-02-15T07:37:09;94186.19;;;37.58;59.36
58343;BME280;44150;42.602;23.398;2024-02-15T07:39:34;94182.97;;;37.56;59.25
58343;BME280;44150;42.602;23.398;2024-02-15T07:42:01;94186.38;;;37.61;60.02
58343;BME280;44150;42.602;23.398;2024-02-15T07:44:30;94183.47;;;37.58;59.58
58343;BME280;44150;42.602;23.398;2024-02-15T07:46:58;94175.78;;;37.51;60.06
58343;BME280;44150;42.602;23.398;2024-02-15T07:49:25;94180.91;;;37.53;60.03
58343;BME280;44150;42.602;23.398;2024-02-15T07:51:51;94177.09;;;37.54;59.69
58343;BME280;44150;42.602;23.398;2024-02-15T07:54:19;94178.19;;;37.53;60.12
58343;BME280;44150;42.602;23.398;2024-02-15T07:56:48;94181.69;;;37.53;59.05
58343;BME280;44150;42.602;23.398;2024-02-15T07:59:14;94183.47;;;37.58;59.33
58343;BME280;44150;42.602;23.398;2024-02-15T08:01:41;94188.66;;;37.54;59.54
58343;BME280;44150;42.602;23.398;2024-02-15T08:04:07;94185.97;;;37.54;59.56
58343;BME280;44150;42.602;23.398;2024-02-15T08:06:33;94195.69;;;37.55;59.40
58343;BME280;44150;42.602;23.398;2024-02-15T08:09:02;94188.09;;;37.57;59.85
58343;BME280;44150;42.602;23.398;2024-02-15T08:11:30;94184.56;;;37.57;59.13
58343;BME280;44150;42.602;23.398;2024-02-15T08:13:55;94184.06;;;37.55;59.28
58343;BME280;44150;42.602;23.398;2024-02-15T08:16:25;94179.78;;;37.54;59.58
58343;BME280;44150;42.602;23.398;2024-02-15T08:18:53;94181.56;;;37.58;58.98
58343;BME280;44150;42.602;23.398;2024-02-15T08:21:25;94175.69;;;37.56;59.52
58343;BME280;44150;42.602;23.398;2024-02-15T08:23:51;94174.06;;;37.55;59.58
58343;BME280;44150;42.602;23.398;2024-02-15T08:26:17;94179.34;;;37.60;59.19
58343;BME280;44150;42.602;23.398;2024-02-15T08:28:42;94175.38;;;37.58;59.45
58343;BME280;44150;42.602;23.398;2024-02-15T08:31:07;94179.97;;;37.57;59.61
58343;BME280;44150;42.602;23.398;2024-02-15T08:33:35;94178.66;;;37.55;59.72
58343;BME280;44150;42.602;23.398;2024-02-15T08:36:01;94173.44;;;37.58;59.53
58343;BME280;44150;42.602;23.398;2024-02-15T08:38:27;94176.16;;;37.58;58.74
58343;BME280;44150;42.602;23.398;2024-02-15T08:40:52;94170.75;;;37.58;59.33
58343;BME280;44150;42.602;23.398;2024-02-15T08:43:18;94165.84;;;37.60;59.67
58343;BME280;44150;42.602;23.398;2024-02-15T08:45:43;94167.56;;;37.56;59.52
58343;BME280;44150;42.602;23.398;2024-02-15T08:48:11;94166.06;;;37.50;59.55
58343;BME280;44150;42.602;23.398;2024-02-15T08:50:36;94169.06;;;37.49;59.71
58343;BME280;44150;42.602;23.398;2024-02-15T08:53:02;94172.25;;;37.51;59.50
58343;BME280;44150;42.602;23.398;2024-02-15T08:55:31;94170.56;;;37.55;59.78
58343;BME280;44150;42.602;23.398;2024-02-15T08:57:57;94159.75;;;37.55;59.54
58343;BME280;44150;42.602;23.398;2024-02-15T09:00:22;94158.97;;;37.54;59.88
58343;BME280;44150;42.602;23.398;2024-02-15T09:02:48;94160.28;;;37.57;60.00
58343;BME280;44150;42.602;23.398;2024-02-15T09:05:18;94165.50;;;37.53;59.41
58343;BME280;44150;42.602;23.398;2024-02-15T09:07:44;94165.88;;;36.70;32.69
58343;BME280;44150;42.602;23.398;2024-02-15T09:10:14;94168.16;;;34.91;23.88
58343;BME280;44150;42.602;23.398;2024-02-15T09:12:40;94165.63;;;37.70;31.17
58343;BME280;44150;42.602;23.398;2024-02-15T09:15:09;94161.16;;;37.16;35.69
58343;BME280;44150;42.602;23.398;2024-02-15T09:17:37;94158.59;;;37.34;41.04
58343;BME280;44150;42.602;23.398;2024-02-15T09:20:14;94153.72;;;37.36;45.29
58343;BME280;44150;42.602;23.398;2024-02-15T09:23:00;94150.41;;;37.39;49.03
58343;BME280;44150;42.602;23.398;2024-02-15T09:25:29;94154.38;;;37.41;51.35
58343;BME280;44150;42.602;23.398;2024-02-15T09:27:56;94152.81;;;37.40;52.31
58343;BME280;44150;42.602;23.398;2024-02-15T09:30:21;94154.06;;;37.43;52.88
58343;BME280;44150;42.602;23.398;2024-02-15T09:32:50;94150.28;;;37.44;53.98
58343;BME280;44150;42.602;23.398;2024-02-15T09:35:15;94155.06;;;37.47;54.10
58343;BME280;44150;42.602;23.398;2024-02-15T09:37:48;94154.25;;;37.46;54.38
58343;BME280;44150;42.602;23.398;2024-02-15T09:40:14;94148.56;;;37.48;55.15
58343;BME280;44150;42.602;23.398;2024-02-15T09:42:41;94152.06;;;37.48;55.37
58343;BME280;44150;42.602;23.398;2024-02-15T09:45:08;94148.28;;;37.49;55.98
58343;BME280;44150;42.602;23.398;2024-02-15T09:47:38;94156.97;;;37.46;55.89
58343;BME280;44150;42.602;23.398;2024-02-15T09:50:14;94160.00;;;37.45;56.01
58343;BME280;44150;42.602;23.398;2024-02-15T09:52:44;94153.16;;;37.47;56.39
58343;BME280;44150;42.602;23.398;2024-02-15T09:55:10;94150.97;;;37.49;56.52
58343;BME280;44150;42.602;23.398;2024-02-15T09:57:41;94148.56;;;37.48;57.02
58343;BME280;44150;42.602;23.398;2024-02-15T10:00:07;94144.97;;;37.52;57.54
58343;BME280;44150;42.602;23.398;2024-02-15T10:02:35;94142.16;;;37.57;58.79
58343;BME280;44150;42.602;23.398;2024-02-15T10:05:02;94137.97;;;37.51;58.56
58343;BME280;44150;42.602;23.398;2024-02-15T10:07:27;94137.16;;;37.51;58.29
58343;BME280;44150;42.602;23.398;2024-02-15T10:09:54;94131.75;;;37.51;57.80
58343;BME280;44150;42.602;23.398;2024-02-15T10:12:20;94130.38;;;37.53;58.57
58343;BME280;44150;42.602;23.398;2024-02-15T10:14:52;94129.56;;;37.53;58.27
58343;BME280;44150;42.602;23.398;2024-02-15T10:17:19;94124.97;;;37.53;58.15
58343;BME280;44150;42.602;23.398;2024-02-15T10:19:44;94119.06;;;37.51;58.20
58343;BME280;44150;42.602;23.398;2024-02-15T10:22:12;94118.78;;;37.53;58.43
58343;BME280;44150;42.602;23.398;2024-02-15T10:24:40;94123.06;;;37.54;59.47
58343;BME280;44150;42.602;23.398;2024-02-15T10:27:06;94108.78;;;37.53;59.64
58343;BME280;44150;42.602;23.398;2024-02-15T10:29:36;94105.28;;;37.53;59.43
58343;BME280;44150;42.602;23.398;2024-02-15T10:32:02;94100.66;;;37.53;59.81
58343;BME280;44150;42.602;23.398;2024-02-15T10:34:28;94097.16;;;37.53;59.04
58343;BME280;44150;42.602;23.398;2024-02-15T10:36:56;94092.25;;;37.55;59.03
58343;BME280;44150;42.602;23.398;2024-02-15T10:39:35;94096.84;;;37.54;58.99
58343;BME280;44150;42.602;23.398;2024-02-15T10:42:00;94088.16;;;37.57;59.69
58343;BME280;44150;42.602;23.398;2024-02-15T10:44:26;94081.03;;;37.61;59.56
58343;BME280;44150;42.602;23.398;2024-02-15T10:46:53;94091.66;;;37.58;60.86
58343;BME280;44150;42.602;23.398;2024-02-15T10:49:23;94083.47;;;37.49;60.29
58343;BME280;44150;42.602;23.398;2024-02-15T10:51:59;94081.53;;;37.50;60.83
58343;BME280;44150;42.602;23.398;2024-02-15T10:54:47;94077.72;;;37.51;60.44
58343;BME280;44150;42.602;23.398;2024-02-15T10:57:13;94081.25;;;37.51;60.18
58343;BME280;44150;42.602;23.398;2024-02-15T10:59:54;94079.38;;;37.52;60.42
58343;BME280;44150;42.602;23.398;2024-02-15T11:04:52;94067.47;;;37.53;59.87
58343;BME280;44150;42.602;23.398;2024-02-15T11:07:23;94071.75;;;37.54;60.48
58343;BME280;44150;42.602;23.398;2024-02-15T11:09:48;94065.25;;;37.55;60.58
58343;BME280;44150;42.602;23.398;2024-02-15T11:12:14;94063.66;;;37.54;60.34
58343;BME280;44150;42.602;23.398;2024-02-15T11:14:44;94063.66;;;37.54;60.14
58343;BME280;44150;42.602;23.398;2024-02-15T11:17:10;94065.56;;;37.53;59.70
58343;BME280;44150;42.602;23.398;2024-02-15T11:22:21;94071.75;;;37.54;59.72
58343;BME280;44150;42.602;23.398;2024-02-15T11:24:48;94065.25;;;37.55;60.28
58343;BME280;44150;42.602;23.398;2024-02-15T11:27:27;94067.94;;;37.55;60.21
58343;BME280;44150;42.602;23.398;2024-02-15T11:30:00;94066.38;;;37.54;60.22
58343;BME280;44150;42.602;23.398;2024-02-15T11:43:07;94050.63;;;37.56;60.56
58343;BME280;44150;42.602;23.398;2024-02-15T11:45:33;94056.53;;;37.58;60.76
58343;BME280;44150;42.602;23.398;2024-02-15T11:48:08;94052.53;;;37.55;60.55
58343;BME280;44150;42.602;23.398;2024-02-15T11:50:36;94061.53;;;37.51;61.13
58343;BME280;44150;42.602;23.398;2024-02-15T11:53:04;94055.66;;;37.49;61.59
58343;BME280;44150;42.602;23.398;2024-02-15T11:55:39;94053.16;;;37.52;60.78
58343;BME280;44150;42.602;23.398;2024-02-15T11:58:05;94043.16;;;37.53;61.22
58343;BME280;44150;42.602;23.398;2024-02-15T12:00:34;94046.66;;;37.53;61.15
58343;BME280;44150;42.602;23.398;2024-02-15T12:03:18;94045.53;;;37.54;61.13
58343;BME280;44150;42.602;23.398;2024-02-15T12:06:03;94042.06;;;37.54;60.92
58343;BME280;44150;42.602;23.398;2024-02-15T12:08:49;94044.13;;;37.57;61.06
58343;BME280;44150;42.602;23.398;2024-02-15T12:11:33;94041.72;;;37.55;61.23
58343;BME280;44150;42.602;23.398;2024-02-15T12:14:18;94052.88;;;37.54;61.93
58343;BME280;44150;42.602;23.398;2024-02-15T12:17:04;94037.44;;;37.54;61.30
58343;BME280;44150;42.602;23.398;2024-02-15T12:19:50;94038.22;;;37.55;61.97
58343;BME280;44150;42.602;23.398;2024-02-15T12:22:18;94036.31;;;37.55;62.11
58343;BME280;44150;42.602;23.398;2024-02-15T12:24:52;94036.31;;;37.55;61.27
58343;BME280;44150;42.602;23.398;2024-02-15T12:27:18;94037.94;;;37.56;61.86
58343;BME280;44150;42.602;23.398;2024-02-15T12:29:45;94038.56;;;37.53;61.39
58343;BME280;44150;42.602;23.398;2024-02-15T12:32:20;94033.44;;;37.52;61.26
58343;BME280;44150;42.602;23.398;2024-02-15T12:34:45;94029.31;;;37.54;62.19
58343;BME280;44150;42.602;23.398;2024-02-15T12:37:12;94030.75;;;37.52;62.00
58343;BME280;44150;42.602;23.398;2024-02-15T12:39:38;94030.63;;;37.57;62.36
58343;BME280;44150;42.602;23.398;2024-02-15T12:42:06;94027.44;;;37.55;62.45
58343;BME280;44150;42.602;23.398;2024-02-15T12:44:32;94022.03;;;37.55;61.82
58343;BME280;44150;42.602;23.398;2024-02-15T12:46:59;94020.63;;;37.57;61.94
58343;BME280;44150;42.602;23.398;2024-02-15T12:55:18;94018.06;;;37.52;62.27
58343;BME280;44150;42.602;23.398;2024-02-15T12:57:52;94021.84;;;37.51;61.87
58343;BME280;44150;42.602;23.398;2024-02-15T13:00:22;94019.66;;;37.53;61.30
58343;BME280;44150;42.602;23.398;2024-02-15T13:02:49;94022.91;;;37.50;61.18
58343;BME280;44150;42.602;23.398;2024-02-15T13:05:18;94017.75;;;37.54;61.68
58343;BME280;44150;42.602;23.398;2024-02-15T13:07:46;94020.75;;;37.52;61.67
58343;BME280;44150;42.602;23.398;2024-02-15T13:10:11;94015.06;;;37.54;60.99
58343;BME280;44150;42.602;23.398;2024-02-15T13:12:43;94017.25;;;37.52;61.09
58343;BME280;44150;42.602;23.398;2024-02-15T13:15:10;94012.34;;;37.54;61.08